createdAt,value
2022-12-11T00:00:56.433Z,93.72
2022-12-11T00:03:24.360Z,94.02
2022-12-11T00:05:51.900Z,94.61
2022-12-11T00:08:19.515Z,95.14
2022-12-11T00:10:49.572Z,95.33
2022-12-11T00:13:17.108Z,95.69
2022-12-11T00:15:44.663Z,95.57
2022-12-11T00:18:14.182Z,94.77
2022-12-11T00:20:42.023Z,95.17
2022-12-11T00:23:10.815Z,94.11
2022-12-11T00:25:47.120Z,93.84
2022-12-11T00:28:18.912Z,93.99
2022-12-11T00:30:47.041Z,94.86
2022-12-11T00:33:15.327Z,93.95
2022-12-11T00:35:45.828Z,95.31
2022-12-11T00:38:19.747Z,93.85
2022-12-11T00:40:48.016Z,92.48
2022-12-11T00:43:16.892Z,93.71
2022-12-11T00:45:47.143Z,94.50
2022-12-11T00:48:15.018Z,94.33
2022-12-11T00:50:43.153Z,93.83
2022-12-11T00:53:10.857Z,93.73
2022-12-11T00:55:40.273Z,94.81
2022-12-11T00:58:09.325Z,95.49
2022-12-11T01:00:37.884Z,95.96
2022-12-11T01:03:06.281Z,95.11
2022-12-11T01:05:35.196Z,94.96
2022-12-11T01:08:03.810Z,92.17
2022-12-11T01:10:32.598Z,92.89
2022-12-11T01:13:06.386Z,92.70
2022-12-11T01:15:45.331Z,91.85
2022-12-11T01:18:15.599Z,93.27
2022-12-11T01:20:43.722Z,92.36
2022-12-11T01:23:13.897Z,94.31
2022-12-11T01:25:44.445Z,94.83
2022-12-11T01:28:12.065Z,94.28
2022-12-11T01:30:43.711Z,93.87
2022-12-11T01:33:11.726Z,93.56
2022-12-11T01:35:40.313Z,95.43
2022-12-11T01:38:09.871Z,96.07
2022-12-11T01:40:37.775Z,95.57
2022-12-11T01:43:05.403Z,95.36
2022-12-11T01:45:51.024Z,95.08
2022-12-11T01:48:25.611Z,95.09
2022-12-11T01:50:58.082Z,94.32
2022-12-11T01:53:33.903Z,94.13
2022-12-11T01:56:03.100Z,93.28
2022-12-11T01:58:34.384Z,93.15
2022-12-11T02:01:03.237Z,94.10
2022-12-11T02:03:31.363Z,94.29
2022-12-11T02:06:00.466Z,95.32
2022-12-11T02:08:28.740Z,94.60
2022-12-11T02:11:11.595Z,93.92
2022-12-11T02:13:53.898Z,94.12
2022-12-11T02:16:29.129Z,95.68
2022-12-11T02:19:08.001Z,94.65
2022-12-11T02:21:42.531Z,94.80
2022-12-11T02:24:33.484Z,94.76
2022-12-11T02:27:14.754Z,94.39
2022-12-11T02:29:55.366Z,93.80
2022-12-11T02:32:39.455Z,94.62
2022-12-11T02:35:07.765Z,93.82
2022-12-11T02:37:38.824Z,93.17
2022-12-11T02:40:11.246Z,92.84
2022-12-11T02:42:42.561Z,94.10
2022-12-11T02:45:12.601Z,94.63
2022-12-11T02:47:43.662Z,94.15
2022-12-11T02:50:15.894Z,93.87
2022-12-11T02:52:46.672Z,94.14
2022-12-11T02:55:16.023Z,93.73
2022-12-11T02:57:56.606Z,94.01
2022-12-11T03:00:24.594Z,94.56
2022-12-11T03:02:52.546Z,92.79
2022-12-11T03:05:20.196Z,92.32
2022-12-11T03:07:47.872Z,92.76
2022-12-11T03:10:19.251Z,92.61
2022-12-11T03:12:53.374Z,94.40
2022-12-11T03:15:30.296Z,94.04
2022-12-11T03:18:09.844Z,93.78
2022-12-11T03:20:47.683Z,94.59
2022-12-11T03:23:24.105Z,92.82
2022-12-11T03:25:59.113Z,90.78
2022-12-11T03:28:31.961Z,92.13
2022-12-11T03:31:04.237Z,90.86
2022-12-11T03:33:37.623Z,94.69
2022-12-11T03:36:11.067Z,95.13
2022-12-11T03:38:50.397Z,93.67
2022-12-11T03:41:22.297Z,93.36
2022-12-11T03:43:53.457Z,92.63
2022-12-11T03:46:22.585Z,92.49
2022-12-11T03:48:52.922Z,92.50
2022-12-11T03:51:24.220Z,92.74
2022-12-11T03:53:53.280Z,93.73
2022-12-11T03:56:22.405Z,94.21
2022-12-11T03:58:57.079Z,92.77
2022-12-11T04:01:25.034Z,92.72
2022-12-11T04:03:52.962Z,90.92
2022-12-11T04:06:20.772Z,90.75
2022-12-11T04:08:48.609Z,90.40
2022-12-11T04:11:34.800Z,89.95
2022-12-11T04:14:28.147Z,90.20
2022-12-11T04:16:57.076Z,89.13
2022-12-11T04:19:44.158Z,88.51
2022-12-11T04:22:31.958Z,89.65
2022-12-11T04:25:00.398Z,89.14
2022-12-11T04:27:46.826Z,91.44
2022-12-11T04:30:21.136Z,90.72
2022-12-11T04:32:49.554Z,88.54
2022-12-11T04:35:17.461Z,87.08
2022-12-11T04:37:45.363Z,87.89
2022-12-11T04:40:17.226Z,88.10
2022-12-11T04:42:44.859Z,87.36
2022-12-11T04:45:13.580Z,88.75
2022-12-11T04:47:42.211Z,87.20
2022-12-11T04:50:11.975Z,86.33
2022-12-11T04:52:39.924Z,86.32
2022-12-11T04:55:08.784Z,87.09
2022-12-11T04:57:36.884Z,88.88
2022-12-11T05:00:08.552Z,86.35
2022-12-11T05:02:38.083Z,87.82
2022-12-11T05:05:06.912Z,85.87
2022-12-11T05:07:34.446Z,85.29
2022-12-11T05:10:02.548Z,85.19
2022-12-11T05:12:31.528Z,85.49
2022-12-11T05:14:59.110Z,84.68
2022-12-11T05:17:26.919Z,84.48
2022-12-11T05:19:54.720Z,84.79
2022-12-11T05:22:22.298Z,83.84
2022-12-11T05:24:50.136Z,83.65
2022-12-11T05:27:17.739Z,83.58
2022-12-11T05:29:45.355Z,83.69
2022-12-11T05:32:13.199Z,83.12
2022-12-11T05:34:40.708Z,83.37
2022-12-11T05:37:09.168Z,82.64
2022-12-11T05:39:37.909Z,81.61
2022-12-11T05:42:05.706Z,81.84
2022-12-11T05:44:33.863Z,82.36
2022-12-11T05:47:01.784Z,82.43
2022-12-11T05:49:31.212Z,82.17
2022-12-11T05:51:58.894Z,82.54
2022-12-11T05:54:26.701Z,82.06
2022-12-11T05:56:54.271Z,82.18
2022-12-11T05:59:21.774Z,81.85
2022-12-11T06:01:49.832Z,81.98
2022-12-11T06:04:17.764Z,81.98
2022-12-11T06:06:45.319Z,82.24
2022-12-11T06:09:16.758Z,82.27
2022-12-11T06:11:44.649Z,82.10
2022-12-11T06:14:12.339Z,82.15
2022-12-11T06:16:40.100Z,81.29
2022-12-11T06:19:14.391Z,80.87
2022-12-11T06:21:42.189Z,81.47
2022-12-11T06:24:10.865Z,81.16
2022-12-11T06:26:38.348Z,81.02
2022-12-11T06:29:09.208Z,80.32
2022-12-11T06:31:40.550Z,80.00
2022-12-11T06:34:08.844Z,80.50
2022-12-11T06:36:36.869Z,80.03
2022-12-11T06:39:04.726Z,80.00
2022-12-11T06:41:32.403Z,78.87
2022-12-11T06:43:59.905Z,78.75
2022-12-11T06:46:27.709Z,77.93
2022-12-11T06:48:55.765Z,79.08
2022-12-11T06:51:23.920Z,77.90
2022-12-11T06:53:56.329Z,77.95
2022-12-11T06:56:24.861Z,77.65
2022-12-11T06:58:53.155Z,78.08
2022-12-11T07:01:26.035Z,77.66
2022-12-11T07:03:55.724Z,77.36
2022-12-11T07:06:24.882Z,77.11
2022-12-11T07:08:53.042Z,77.72
2022-12-11T07:11:21.503Z,77.87
2022-12-11T07:13:49.146Z,77.98
2022-12-11T07:16:18.411Z,77.86
2022-12-11T07:18:51.522Z,77.50
2022-12-11T07:21:20.505Z,77.84
2022-12-11T07:23:49.474Z,77.47
2022-12-11T07:26:19.897Z,76.92
2022-12-11T07:28:48.048Z,77.11
2022-12-11T07:31:19.176Z,77.31
2022-12-11T07:33:47.481Z,77.28
2022-12-11T07:36:16.252Z,77.05
2022-12-11T07:38:43.933Z,76.91
2022-12-11T07:41:13.652Z,77.01
2022-12-11T07:43:42.521Z,77.00
2022-12-11T07:46:18.613Z,77.23
2022-12-11T07:48:48.171Z,77.53
2022-12-11T07:51:25.050Z,77.42
2022-12-11T07:53:54.483Z,77.80
2022-12-11T07:56:22.982Z,77.63
2022-12-11T07:58:50.885Z,78.54
2022-12-11T08:01:21.529Z,77.84
2022-12-11T08:03:50.709Z,77.84
2022-12-11T08:06:18.909Z,77.79
2022-12-11T08:08:47.498Z,77.89
2022-12-11T08:11:15.611Z,78.19
2022-12-11T08:13:43.994Z,78.24
2022-12-11T08:16:14.176Z,78.38
2022-12-11T08:18:43.294Z,78.65
2022-12-11T08:21:24.256Z,78.72
2022-12-11T08:23:53.866Z,79.54
2022-12-11T08:26:30.523Z,79.50
2022-12-11T08:28:59.174Z,79.85
2022-12-11T08:31:27.128Z,79.75
2022-12-11T08:33:56.522Z,79.61
2022-12-11T08:36:25.392Z,79.41
2022-12-11T08:38:54.979Z,79.88
2022-12-11T08:41:28.474Z,80.37
2022-12-11T08:43:58.462Z,79.68
2022-12-11T08:46:31.414Z,79.68
2022-12-11T08:49:00.041Z,79.38
2022-12-11T08:51:29.374Z,79.00
2022-12-11T08:54:01.572Z,79.62
2022-12-11T08:56:29.885Z,79.42
2022-12-11T08:59:01.085Z,79.05
2022-12-11T09:01:28.904Z,78.91
2022-12-11T09:03:56.956Z,78.74
2022-12-11T09:06:27.273Z,79.25
2022-12-11T09:08:56.147Z,78.95
2022-12-11T09:11:26.763Z,78.16
2022-12-11T09:13:54.989Z,78.30
2022-12-11T09:16:24.914Z,77.35
2022-12-11T09:18:54.913Z,76.90
2022-12-11T09:21:25.747Z,76.57
2022-12-11T09:23:55.115Z,76.30
2022-12-11T09:26:24.459Z,76.22
2022-12-11T09:28:53.332Z,75.75
2022-12-11T09:31:24.195Z,75.34
2022-12-11T09:33:56.424Z,76.05
2022-12-11T09:36:24.866Z,75.39
2022-12-11T09:38:52.830Z,74.32
2022-12-11T09:41:23.189Z,74.40
2022-12-11T09:44:02.355Z,75.30
2022-12-11T09:46:34.356Z,75.08
2022-12-11T09:49:04.082Z,75.24
2022-12-11T09:51:46.751Z,75.27
2022-12-11T09:54:15.141Z,76.03
2022-12-11T09:56:50.706Z,75.89
2022-12-11T09:59:42.804Z,75.56
2022-12-11T10:02:45.203Z,76.44
2022-12-11T10:05:26.574Z,78.20
2022-12-11T10:08:15.649Z,76.08
2022-12-11T10:10:52.016Z,75.86
2022-12-11T10:13:57.308Z,76.23
2022-12-11T10:16:57.721Z,76.05
2022-12-11T10:19:30.028Z,75.98
2022-12-11T10:22:01.167Z,75.41
2022-12-11T10:25:10.040Z,74.58
2022-12-11T10:27:31.574Z,74.15
2022-12-11T10:30:24.723Z,73.00
2022-12-11T10:33:48.317Z,73.90
2022-12-11T10:36:20.861Z,74.22
2022-12-11T10:38:49.129Z,73.34
2022-12-11T10:41:38.041Z,72.62
2022-12-11T10:44:19.094Z,73.56
2022-12-11T10:46:48.535Z,73.27
2022-12-11T10:49:25.842Z,73.28
2022-12-11T10:51:55.436Z,74.32
2022-12-11T10:54:38.175Z,73.71
2022-12-11T10:57:08.286Z,74.36
2022-12-11T10:59:43.803Z,73.44
2022-12-11T11:02:25.678Z,71.49
2022-12-11T11:04:55.815Z,73.52
2022-12-11T11:07:28.941Z,74.25
2022-12-11T11:10:12.104Z,74.80
2022-12-11T11:12:47.811Z,74.90
2022-12-11T11:15:18.261Z,74.81
2022-12-11T11:17:55.521Z,76.23
2022-12-11T11:20:30.078Z,75.80
2022-12-11T11:23:01.691Z,75.50
2022-12-11T11:25:33.056Z,73.46
2022-12-11T11:28:08.407Z,72.92
2022-12-11T11:30:41.498Z,72.74
2022-12-11T11:33:21.057Z,72.09
2022-12-11T11:35:58.419Z,71.14
2022-12-11T11:38:58.779Z,71.31
2022-12-11T11:41:33.428Z,72.13
2022-12-11T11:44:04.560Z,71.53
2022-12-11T11:46:36.610Z,70.31
2022-12-11T11:49:13.205Z,70.88
2022-12-11T11:51:50.248Z,70.07
2022-12-11T11:54:35.940Z,69.41
2022-12-11T11:57:17.688Z,68.84
2022-12-11T11:59:53.713Z,69.89
2022-12-11T12:02:21.899Z,69.15
2022-12-11T12:04:51.376Z,68.60
2022-12-11T12:08:05.972Z,70.20
2022-12-11T12:10:44.196Z,69.99
2022-12-11T12:13:49.034Z,68.78
2022-12-11T12:16:55.383Z,68.75
2022-12-11T12:19:33.891Z,69.32
2022-12-11T12:22:40.568Z,69.63
2022-12-11T12:28:37.824Z,67.52
2022-12-11T12:31:08.081Z,68.16
2022-12-11T12:33:51.140Z,68.79
2022-12-11T12:36:37.716Z,67.92
2022-12-11T12:43:20.236Z,66.01
2022-12-11T12:46:26.016Z,66.01
2022-12-11T12:48:56.624Z,68.17
2022-12-11T12:51:26.104Z,68.37
2022-12-11T12:53:59.310Z,66.30
2022-12-11T12:56:29.212Z,66.68
2022-12-11T12:58:56.883Z,67.80
2022-12-11T13:01:27.699Z,67.54
2022-12-11T13:03:59.752Z,66.61
2022-12-11T13:06:35.109Z,66.49
2022-12-11T13:09:17.267Z,66.08
2022-12-11T13:11:46.085Z,66.10
2022-12-11T13:14:13.801Z,66.97
2022-12-11T13:16:46.169Z,66.63
2022-12-11T13:19:39.020Z,65.87
2022-12-11T13:22:12.712Z,65.45
2022-12-11T13:25:19.375Z,65.66
2022-12-11T13:27:47.296Z,65.06
2022-12-11T13:30:15.237Z,64.82
2022-12-11T13:32:52.145Z,64.62
2022-12-11T13:35:20.832Z,65.12
2022-12-11T13:37:52.367Z,64.51
2022-12-11T13:40:24.654Z,63.60
2022-12-11T13:43:05.950Z,64.07
2022-12-11T13:45:45.177Z,63.74
2022-12-11T13:48:24.995Z,63.67
2022-12-11T13:50:54.070Z,63.38
2022-12-11T13:53:22.622Z,63.97
2022-12-11T13:56:02.157Z,64.49
2022-12-11T13:58:34.585Z,64.67
2022-12-11T14:01:11.334Z,61.74
2022-12-11T14:03:41.588Z,64.51
2022-12-11T14:06:18.083Z,63.79
2022-12-11T14:08:51.475Z,64.92
2022-12-11T14:11:30.006Z,65.30
2022-12-11T14:14:01.082Z,64.46
2022-12-11T14:16:29.116Z,63.84
2022-12-11T14:19:04.211Z,63.87
2022-12-11T14:21:32.174Z,64.96
2022-12-11T14:24:06.706Z,64.11
2022-12-11T14:26:38.743Z,63.83
2022-12-11T14:29:07.031Z,63.66
2022-12-11T14:31:40.586Z,63.40
2022-12-11T14:34:25.713Z,63.67
2022-12-11T14:36:54.489Z,63.23
2022-12-11T14:39:34.509Z,63.32
2022-12-11T14:42:12.971Z,63.33
2022-12-11T14:45:02.257Z,63.01
2022-12-11T14:47:39.355Z,63.48
2022-12-11T14:50:22.151Z,63.80
2022-12-11T14:53:04.310Z,63.51
2022-12-11T14:55:35.202Z,63.14
2022-12-11T14:58:26.520Z,63.19
2022-12-11T15:01:21.135Z,63.17
2022-12-11T15:03:49.505Z,62.17
2022-12-11T15:06:27.968Z,60.59
2022-12-11T15:08:56.560Z,60.79
2022-12-11T15:11:30.347Z,61.39
2022-12-11T15:14:01.023Z,61.26
2022-12-11T15:16:33.303Z,61.60
2022-12-11T15:19:02.177Z,62.63
2022-12-11T15:21:35.770Z,63.73
2022-12-11T15:24:05.567Z,61.04
2022-12-11T15:26:36.692Z,61.45
2022-12-11T15:29:25.035Z,61.61
2022-12-11T15:32:08.822Z,61.27
2022-12-11T15:34:58.791Z,61.35
2022-12-11T15:37:36.601Z,61.63
2022-12-11T15:40:05.473Z,59.84
2022-12-11T15:42:39.922Z,59.75
2022-12-11T15:45:15.453Z,60.60
2022-12-11T15:47:44.454Z,60.02
2022-12-11T15:50:18.120Z,59.33
2022-12-11T15:52:46.565Z,59.21
2022-12-11T15:55:15.128Z,59.79
2022-12-11T15:57:49.501Z,60.27
2022-12-11T16:00:19.388Z,58.35
2022-12-11T16:02:48.126Z,58.57
2022-12-11T16:05:16.482Z,59.17
2022-12-11T16:07:44.185Z,60.05
2022-12-11T16:10:19.979Z,59.91
2022-12-11T16:12:47.747Z,58.43
2022-12-11T16:15:22.809Z,58.98
2022-12-11T16:18:03.551Z,59.07
2022-12-11T16:20:35.221Z,57.86
2022-12-11T16:23:03.963Z,58.55
2022-12-11T16:25:32.864Z,58.71
2022-12-11T16:28:01.736Z,59.64
2022-12-11T16:30:29.815Z,60.34
2022-12-11T16:32:57.970Z,60.90
2022-12-11T16:35:25.683Z,61.59
2022-12-11T16:37:53.533Z,61.46
2022-12-11T16:40:22.586Z,63.39
2022-12-11T16:42:51.883Z,61.35
2022-12-11T16:45:22.332Z,60.87
2022-12-11T16:47:51.130Z,61.12
2022-12-11T16:50:19.641Z,61.75
2022-12-11T16:52:47.395Z,59.25
2022-12-11T16:55:15.731Z,58.62
2022-12-11T16:57:43.491Z,59.52
2022-12-11T17:00:14.615Z,60.13
2022-12-11T17:02:42.570Z,60.52
2022-12-11T17:05:10.696Z,60.25
2022-12-11T17:07:38.699Z,60.51
2022-12-11T17:10:07.664Z,61.04
2022-12-11T17:12:35.494Z,60.10
2022-12-11T17:15:04.926Z,60.51
2022-12-11T17:17:33.944Z,60.11
2022-12-11T17:20:05.198Z,60.18
2022-12-11T17:22:33.419Z,60.14
2022-12-11T17:25:00.957Z,60.71
2022-12-11T17:27:28.564Z,60.41
2022-12-11T17:29:57.821Z,60.56
2022-12-11T17:32:25.899Z,60.42
2022-12-11T17:34:53.820Z,60.31
2022-12-11T17:37:21.738Z,60.89
2022-12-11T17:39:53.343Z,61.06
2022-12-11T17:42:21.592Z,60.70
2022-12-11T17:44:50.478Z,60.63
2022-12-11T17:47:19.050Z,60.47
2022-12-11T17:49:47.324Z,60.82
2022-12-11T17:52:15.064Z,60.80
2022-12-11T17:54:42.750Z,60.48
2022-12-11T17:57:10.911Z,60.21
2022-12-11T17:59:39.182Z,60.24
2022-12-11T18:02:06.899Z,60.38
2022-12-11T18:04:34.807Z,60.77
2022-12-11T18:07:02.883Z,61.23
2022-12-11T18:09:30.586Z,60.90
2022-12-11T18:11:59.018Z,60.08
2022-12-11T18:14:26.723Z,59.93
2022-12-11T18:16:54.454Z,60.21
2022-12-11T18:19:22.851Z,59.89
2022-12-11T18:21:50.895Z,59.81
2022-12-11T18:24:18.772Z,59.85
2022-12-11T18:26:47.748Z,59.66
2022-12-11T18:29:16.064Z,61.16
2022-12-11T18:31:44.434Z,60.44
2022-12-11T18:34:12.767Z,59.25
2022-12-11T18:36:40.867Z,59.02
2022-12-11T18:39:08.761Z,59.67
2022-12-11T18:41:36.947Z,60.22
2022-12-11T18:44:09.512Z,60.49
2022-12-11T18:46:39.685Z,59.76
2022-12-11T18:49:07.733Z,60.15
2022-12-11T18:51:36.220Z,60.56
2022-12-11T18:54:04.603Z,60.37
2022-12-11T18:56:32.318Z,58.29
2022-12-11T18:59:00.168Z,58.23
2022-12-11T19:01:29.356Z,57.84
2022-12-11T19:04:03.517Z,58.56
2022-12-11T19:06:35.697Z,58.42
2022-12-11T19:09:06.958Z,59.76
2022-12-11T19:11:40.041Z,58.64
2022-12-11T19:14:09.313Z,58.30
2022-12-11T19:16:45.421Z,58.49
2022-12-11T19:19:18.871Z,58.54
2022-12-11T19:21:48.162Z,58.75
2022-12-11T19:24:20.839Z,59.44
2022-12-11T19:26:49.742Z,60.68
2022-12-11T19:29:22.084Z,60.97
2022-12-11T19:31:50.493Z,60.01
2022-12-11T19:34:19.949Z,59.97
2022-12-11T19:36:48.847Z,61.35
2022-12-11T19:39:17.814Z,62.51
2022-12-11T19:41:49.182Z,60.58
2022-12-11T19:44:17.396Z,60.62
2022-12-11T19:46:45.403Z,60.38
2022-12-11T19:49:14.322Z,62.61
2022-12-11T19:51:43.534Z,63.71
2022-12-11T19:54:15.540Z,62.40
2022-12-11T19:56:45.007Z,62.80
2022-12-11T19:59:16.641Z,63.92
2022-12-11T20:01:48.117Z,63.14
2022-12-11T20:04:18.179Z,62.89
2022-12-11T20:06:46.969Z,64.53
2022-12-11T20:09:16.163Z,64.27
2022-12-11T20:11:45.184Z,63.66
2022-12-11T20:14:24.838Z,63.46
2022-12-11T20:17:14.608Z,63.72
2022-12-11T20:19:43.333Z,64.16
2022-12-11T20:22:12.537Z,64.32
2022-12-11T20:24:40.687Z,63.78
2022-12-11T20:27:09.687Z,64.56
2022-12-11T20:29:38.974Z,63.02
2022-12-11T20:32:07.386Z,62.70
2022-12-11T20:34:35.637Z,62.67
2022-12-11T20:37:04.871Z,63.91
2022-12-11T20:39:32.650Z,62.73
2022-12-11T20:42:04.686Z,62.05
2022-12-11T20:44:32.799Z,62.68
2022-12-11T20:47:00.615Z,62.82
2022-12-11T20:49:28.439Z,63.96
2022-12-11T20:51:56.883Z,63.93
2022-12-11T20:54:24.615Z,64.08
2022-12-11T20:56:52.640Z,64.38
2022-12-11T20:59:20.845Z,64.68
2022-12-11T21:01:49.550Z,63.59
2022-12-11T21:04:17.500Z,63.47
2022-12-11T21:06:45.640Z,64.63
2022-12-11T21:09:19.286Z,64.68
2022-12-11T21:11:47.621Z,64.24
2022-12-11T21:14:16.546Z,64.14
2022-12-11T21:16:45.474Z,64.45
2022-12-11T21:19:17.105Z,64.06
2022-12-11T21:21:45.707Z,64.33
2022-12-11T21:24:26.446Z,65.84
2022-12-11T21:26:55.993Z,63.38
2022-12-11T21:29:26.386Z,63.12
2022-12-11T21:31:54.237Z,64.31
2022-12-11T21:34:25.226Z,64.32
2022-12-11T21:36:56.877Z,63.48
2022-12-11T21:39:26.958Z,65.19
2022-12-11T21:41:54.843Z,64.76
2022-12-11T21:47:10.372Z,63.40
2022-12-11T21:49:38.423Z,63.10
2022-12-11T21:52:08.525Z,62.59
2022-12-11T21:54:36.851Z,62.27
2022-12-11T21:57:04.899Z,62.91
2022-12-11T21:59:33.095Z,63.59
2022-12-11T22:02:01.005Z,63.67
2022-12-11T22:04:28.966Z,64.31
2022-12-11T22:06:56.548Z,65.43
2022-12-11T22:09:24.100Z,65.07
2022-12-11T22:11:57.952Z,65.13
2022-12-11T22:14:26.764Z,64.35
2022-12-11T22:16:54.676Z,64.83
2022-12-11T22:19:22.488Z,64.37
2022-12-11T22:21:50.496Z,63.08
2022-12-11T22:24:19.043Z,63.18
2022-12-11T22:26:46.580Z,63.04
2022-12-11T22:29:14.141Z,63.16
2022-12-11T22:31:42.170Z,63.59
2022-12-11T22:34:09.722Z,63.32
2022-12-11T22:36:37.692Z,63.63
2022-12-11T22:39:05.553Z,63.41
2022-12-11T22:41:33.530Z,63.69
2022-12-11T22:44:01.016Z,63.39
2022-12-11T22:46:30.704Z,63.63
2022-12-11T22:48:59.172Z,63.66
2022-12-11T22:51:26.739Z,64.94
2022-12-11T22:53:54.623Z,64.17
2022-12-11T22:56:22.188Z,63.99
2022-12-11T22:58:49.840Z,64.10
2022-12-11T23:01:23.404Z,63.17
2022-12-11T23:03:51.549Z,63.57
2022-12-11T23:06:22.034Z,62.90
2022-12-11T23:08:50.001Z,63.22
2022-12-11T23:11:19.130Z,63.97
2022-12-11T23:13:47.348Z,64.06
2022-12-11T23:16:15.001Z,64.71
2022-12-11T23:18:43.028Z,64.33
2022-12-11T23:21:12.237Z,66.03
2022-12-11T23:23:41.139Z,66.03
2022-12-11T23:26:12.265Z,64.15
2022-12-11T23:28:40.405Z,63.75
2022-12-11T23:31:08.568Z,63.33
2022-12-11T23:33:36.659Z,64.14
2022-12-11T23:36:05.335Z,64.14
2022-12-11T23:38:33.224Z,63.55
2022-12-11T23:41:02.469Z,64.12
2022-12-11T23:43:32.059Z,62.53
2022-12-11T23:45:59.681Z,64.13
2022-12-11T23:48:27.238Z,65.27
2022-12-11T23:51:02.364Z,64.00
2022-12-11T23:53:30.089Z,64.28
2022-12-11T23:56:04.181Z,64.33
2022-12-11T23:58:32.399Z,66.17
